sensor_id;sensor_type;location;lat;lon;timestamp;pressure;altitude;pressure_sealevel;temperature;humidity
35479;BME280;21594;49.794;18.652;2022-10-15T00:00:34;98089.39;;;13.05;100.00
35479;BME280;21594;49.794;18.652;2022-10-15T00:03:04;98096.11;;;13.03;100.00
35479;BME280;21594;49.794;18.652;2022-10-15T00:05:43;98089.19;;;13.02;100.00
35479;BME280;21594;49.794;18.652;2022-10-15T00:08:09;98089.06;;;13.04;100.00
35479;BME280;21594;49.794;18.652;2022-10-15T00:10:35;98095.08;;;13.10;100.00
35479;BME280;21594;49.794;18.652;2022-10-15T00:13:02;98091.41;;;13.12;100.00
35479;BME280;21594;49.794;18.652;2022-10-15T00:15:27;98089.83;;;13.10;100.00
35479;BME280;21594;49.794;18.652;2022-10-15T00:17:54;98092.72;;;13.12;100.00
35479;BME280;21594;49.794;18.652;2022-10-15T00:20:20;98091.88;;;13.12;100.00
35479;BME280;21594;49.794;18.652;2022-10-15T00:22:48;98096.06;;;13.14;100.00
35479;BME280;21594;49.794;18.652;2022-10-15T00:25:14;98093.87;;;13.19;100.00
35479;BME280;21594;49.794;18.652;2022-10-15T00:27:40;98093.23;;;13.21;100.00
35479;BME280;21594;49.794;18.652;2022-10-15T00:32:59;98084.75;;;13.23;100.00
35479;BME280;21594;49.794;18.652;2022-10-15T00:35:25;98082.13;;;13.23;100.00
35479;BME280;21594;49.794;18.652;2022-10-15T00:40:36;98080.33;;;13.24;100.00
35479;BME280;21594;49.794;18.652;2022-10-15T00:43:02;98079.37;;;13.25;100.00
35479;BME280;21594;49.794;18.652;2022-10-15T00:45:27;98079.57;;;13.27;100.00
35479;BME280;21594;49.794;18.652;2022-10-15T00:47:53;98079.45;;;13.29;100.00
35479;BME280;21594;49.794;18.652;2022-10-15T00:50:23;98078.33;;;13.31;100.00
35479;BME280;21594;49.794;18.652;2022-10-15T00:55:29;98068.89;;;13.34;100.00
35479;BME280;21594;49.794;18.652;2022-10-15T00:57:57;98064.11;;;13.34;100.00
35479;BME280;21594;49.794;18.652;2022-10-15T01:00:26;98061.48;;;13.34;100.00
35479;BME280;21594;49.794;18.652;2022-10-15T01:02:54;98061.61;;;13.32;100.00
35479;BME280;21594;49.794;18.652;2022-10-15T01:05:20;98059.81;;;13.33;100.00
35479;BME280;21594;49.794;18.652;2022-10-15T01:15:39;98055.39;;;13.33;100.00
35479;BME280;21594;49.794;18.652;2022-10-15T01:18:07;98054.84;;;13.30;100.00
35479;BME280;21594;49.794;18.652;2022-10-15T01:25:39;98039.06;;;13.30;100.00
35479;BME280;21594;49.794;18.652;2022-10-15T01:28:24;98030.42;;;13.33;100.00
35479;BME280;21594;49.794;18.652;2022-10-15T01:40:46;98025.75;;;13.22;100.00
35479;BME280;21594;49.794;18.652;2022-10-15T01:43:21;98026.17;;;13.27;100.00
35479;BME280;21594;49.794;18.652;2022-10-15T01:45:48;98022.59;;;13.28;100.00
35479;BME280;21594;49.794;18.652;2022-10-15T01:48:12;98021.98;;;13.30;100.00
35479;BME280;21594;49.794;18.652;2022-10-15T01:50:39;98008.13;;;13.28;100.00
35479;BME280;21594;49.794;18.652;2022-10-15T01:53:06;98004.19;;;13.28;100.00
35479;BME280;21594;49.794;18.652;2022-10-15T01:55:32;98002.09;;;13.22;100.00
35479;BME280;21594;49.794;18.652;2022-10-15T01:58:01;98005.84;;;13.19;100.00
35479;BME280;21594;49.794;18.652;2022-10-15T02:00:28;98005.61;;;13.17;100.00
35479;BME280;21594;49.794;18.652;2022-10-15T02:02:58;98010.62;;;13.20;100.00
35479;BME280;21594;49.794;18.652;2022-10-15T02:05:24;98006.32;;;13.19;100.00
35479;BME280;21594;49.794;18.652;2022-10-15T02:07:56;98007.63;;;13.19;100.00
35479;BME280;21594;49.794;18.652;2022-10-15T02:10:23;98005.48;;;13.18;100.00
35479;BME280;21594;49.794;18.652;2022-10-15T02:12:57;98007.35;;;13.22;100.00
35479;BME280;21594;49.794;18.652;2022-10-15T02:17:58;98005.48;;;13.18;100.00
35479;BME280;21594;49.794;18.652;2022-10-15T02:23:06;98001.02;;;13.24;100.00
35479;BME280;21594;49.794;18.652;2022-10-15T02:28:10;97999.05;;;13.17;100.00
35479;BME280;21594;49.794;18.652;2022-10-15T02:30:37;97998.33;;;13.15;100.00
35479;BME280;21594;49.794;18.652;2022-10-15T02:33:04;97992.23;;;13.20;100.00
35479;BME280;21594;49.794;18.652;2022-10-15T02:35:32;97989.80;;;13.22;100.00
35479;BME280;21594;49.794;18.652;2022-10-15T02:37:59;97984.77;;;13.25;100.00
35479;BME280;21594;49.794;18.652;2022-10-15T02:40:27;97986.28;;;13.27;100.00
35479;BME280;21594;49.794;18.652;2022-10-15T02:42:54;97989.33;;;13.32;100.00
35479;BME280;21594;49.794;18.652;2022-10-15T02:47:59;97977.50;;;13.32;100.00
35479;BME280;21594;49.794;18.652;2022-10-15T02:50:25;97974.80;;;13.28;100.00
35479;BME280;21594;49.794;18.652;2022-10-15T02:52:51;97972.30;;;13.27;100.00
35479;BME280;21594;49.794;18.652;2022-10-15T02:55:17;97968.72;;;13.28;100.00
35479;BME280;21594;49.794;18.652;2022-10-15T02:57:52;97965.73;;;13.27;100.00
35479;BME280;21594;49.794;18.652;2022-10-15T03:00:18;97962.02;;;13.29;100.00
35479;BME280;21594;49.794;18.652;2022-10-15T03:02:44;97959.88;;;13.29;100.00
35479;BME280;21594;49.794;18.652;2022-10-15T03:07:40;97952.75;;;13.25;100.00
35479;BME280;21594;49.794;18.652;2022-10-15T03:10:07;97946.08;;;13.21;100.00
35479;BME280;21594;49.794;18.652;2022-10-15T03:12:33;97935.63;;;13.16;100.00
35479;BME280;21594;49.794;18.652;2022-10-15T03:15:03;97933.38;;;13.11;100.00
35479;BME280;21594;49.794;18.652;2022-10-15T03:17:27;97934.70;;;13.11;100.00
35479;BME280;21594;49.794;18.652;2022-10-15T03:19:53;97934.80;;;13.15;100.00
35479;BME280;21594;49.794;18.652;2022-10-15T03:22:18;97941.59;;;13.18;100.00
35479;BME280;21594;49.794;18.652;2022-10-15T03:24:47;97929.77;;;13.18;100.00
35479;BME280;21594;49.794;18.652;2022-10-15T03:27:13;97930.48;;;13.20;100.00
35479;BME280;21594;49.794;18.652;2022-10-15T03:29:39;97930.67;;;13.22;100.00
35479;BME280;21594;49.794;18.652;2022-10-15T03:32:04;97928.27;;;13.25;100.00
35479;BME280;21594;49.794;18.652;2022-10-15T03:34:33;97922.31;;;13.23;100.00
35479;BME280;21594;49.794;18.652;2022-10-15T03:37:00;97926.95;;;13.25;100.00
35479;BME280;21594;49.794;18.652;2022-10-15T03:39:30;97927.16;;;13.27;100.00
35479;BME280;21594;49.794;18.652;2022-10-15T03:41:56;97927.98;;;13.28;100.00
35479;BME280;21594;49.794;18.652;2022-10-15T03:44:35;97922.80;;;13.32;100.00
35479;BME280;21594;49.794;18.652;2022-10-15T03:47:07;97931.16;;;13.31;100.00
35479;BME280;21594;49.794;18.652;2022-10-15T03:49:35;97930.84;;;13.30;100.00
35479;BME280;21594;49.794;18.652;2022-10-15T03:52:01;97919.49;;;13.30;100.00
35479;BME280;21594;49.794;18.652;2022-10-15T03:54:33;97919.49;;;13.30;100.00
35479;BME280;21594;49.794;18.652;2022-10-15T03:56:59;97910.30;;;13.30;100.00
35479;BME280;21594;49.794;18.652;2022-10-15T03:59:25;97914.30;;;13.34;100.00
35479;BME280;21594;49.794;18.652;2022-10-15T04:01:51;97909.39;;;13.35;100.00
35479;BME280;21594;49.794;18.652;2022-10-15T04:04:17;97920.16;;;13.32;100.00
35479;BME280;21594;49.794;18.652;2022-10-15T04:06:43;97915.39;;;13.31;100.00
35479;BME280;21594;49.794;18.652;2022-10-15T04:09:11;97910.77;;;13.29;100.00
35479;BME280;21594;49.794;18.652;2022-10-15T04:11:37;97905.04;;;13.30;100.00
35479;BME280;21594;49.794;18.652;2022-10-15T04:14:03;97908.98;;;13.30;100.00
35479;BME280;21594;49.794;18.652;2022-10-15T04:16:29;97900.74;;;13.29;100.00
35479;BME280;21594;49.794;18.652;2022-10-15T04:18:55;97895.91;;;13.34;100.00
35479;BME280;21594;49.794;18.652;2022-10-15T04:21:23;97897.70;;;13.33;100.00
35479;BME280;21594;49.794;18.652;2022-10-15T04:23:49;97892.31;;;13.35;100.00
35479;BME280;21594;49.794;18.652;2022-10-15T04:26:15;97896.61;;;13.36;100.00
35479;BME280;21594;49.794;18.652;2022-10-15T04:28:46;97891.67;;;13.37;100.00
35479;BME280;21594;49.794;18.652;2022-10-15T04:31:12;97891.77;;;13.41;100.00
35479;BME280;21594;49.794;18.652;2022-10-15T04:33:37;97898.88;;;13.45;100.00
35479;BME280;21594;49.794;18.652;2022-10-15T04:36:04;97893.41;;;13.42;100.00
35479;BME280;21594;49.794;18.652;2022-10-15T04:38:34;97890.94;;;13.40;100.00
35479;BME280;21594;49.794;18.652;2022-10-15T04:41:03;97889.14;;;13.41;100.00
35479;BME280;21594;49.794;18.652;2022-10-15T04:43:36;97887.18;;;13.43;100.00
35479;BME280;21594;49.794;18.652;2022-10-15T04:46:04;97888.98;;;13.43;100.00
35479;BME280;21594;49.794;18.652;2022-10-15T04:51:05;97884.72;;;13.42;100.00
35479;BME280;21594;49.794;18.652;2022-10-15T04:53:31;97893.41;;;13.42;100.00
35479;BME280;21594;49.794;18.652;2022-10-15T04:56:00;97888.73;;;13.36;100.00
35479;BME280;21594;49.794;18.652;2022-10-15T04:58:28;97892.51;;;13.37;100.00
35479;BME280;21594;49.794;18.652;2022-10-15T05:00:54;97899.91;;;13.38;100.00
35479;BME280;21594;49.794;18.652;2022-10-15T05:03:20;97897.22;;;13.34;100.00
35479;BME280;21594;49.794;18.652;2022-10-15T05:05:46;97910.71;;;13.35;100.00
35479;BME280;21594;49.794;18.652;2022-10-15T05:08:12;97910.91;;;13.37;100.00
35479;BME280;21594;49.794;18.652;2022-10-15T05:10:38;97901.98;;;13.44;100.00
35479;BME280;21594;49.794;18.652;2022-10-15T05:13:03;97902.22;;;13.47;100.00
35479;BME280;21594;49.794;18.652;2022-10-15T05:15:29;97906.48;;;13.48;100.00
35479;BME280;21594;49.794;18.652;2022-10-15T05:17:55;97898.46;;;13.49;100.00
35479;BME280;21594;49.794;18.652;2022-10-15T05:22:53;97892.47;;;13.53;100.00
35479;BME280;21594;49.794;18.652;2022-10-15T05:25:31;97887.88;;;13.55;100.00
35479;BME280;21594;49.794;18.652;2022-10-15T05:27:57;97893.97;;;13.55;100.00
35479;BME280;21594;49.794;18.652;2022-10-15T05:30:22;97901.50;;;13.54;100.00
35479;BME280;21594;49.794;18.652;2022-10-15T05:32:51;97899.23;;;13.55;100.00
35479;BME280;21594;49.794;18.652;2022-10-15T05:35:17;97892.66;;;13.55;100.00
35479;BME280;21594;49.794;18.652;2022-10-15T05:37:43;97892.88;;;13.58;100.00
35479;BME280;21594;49.794;18.652;2022-10-15T05:40:10;97893.42;;;13.61;100.00
35479;BME280;21594;49.794;18.652;2022-10-15T05:42:36;97888.99;;;13.62;100.00
35479;BME280;21594;49.794;18.652;2022-10-15T05:45:03;97888.86;;;13.63;100.00
35479;BME280;21594;49.794;18.652;2022-10-15T05:47:28;97883.44;;;13.65;100.00
35479;BME280;21594;49.794;18.652;2022-10-15T05:49:54;97875.55;;;13.65;100.00
35479;BME280;21594;49.794;18.652;2022-10-15T05:52:21;97883.66;;;13.67;100.00
35479;BME280;21594;49.794;18.652;2022-10-15T05:54:49;97890.91;;;13.69;100.00
35479;BME280;21594;49.794;18.652;2022-10-15T05:57:15;97898.53;;;13.72;100.00
35479;BME280;21594;49.794;18.652;2022-10-15T05:59:48;97898.23;;;13.75;100.00
35479;BME280;21594;49.794;18.652;2022-10-15T06:04:23;97904.95;;;13.83;100.00
35479;BME280;21594;49.794;18.652;2022-10-15T06:06:49;97903.52;;;13.85;100.00
35479;BME280;21594;49.794;18.652;2022-10-15T06:09:15;97905.84;;;13.88;100.00
35479;BME280;21594;49.794;18.652;2022-10-15T06:11:43;97900.64;;;13.92;100.00
35479;BME280;21594;49.794;18.652;2022-10-15T06:14:10;97903.84;;;13.96;100.00
35479;BME280;21594;49.794;18.652;2022-10-15T06:16:36;97895.03;;;14.01;100.00
35479;BME280;21594;49.794;18.652;2022-10-15T06:19:06;97905.27;;;14.04;100.00
35479;BME280;21594;49.794;18.652;2022-10-15T06:21:32;97915.52;;;14.07;100.00
35479;BME280;21594;49.794;18.652;2022-10-15T06:24:09;97917.16;;;14.08;100.00
35479;BME280;21594;49.794;18.652;2022-10-15T06:26:36;97920.97;;;14.09;100.00
35479;BME280;21594;49.794;18.652;2022-10-15T06:29:02;97930.23;;;14.13;100.00
35479;BME280;21594;49.794;18.652;2022-10-15T06:31:28;97920.41;;;14.15;100.00
35479;BME280;21594;49.794;18.652;2022-10-15T06:33:54;97932.52;;;14.22;100.00
35479;BME280;21594;49.794;18.652;2022-10-15T06:36:19;97927.31;;;14.26;100.00
35479;BME280;21594;49.794;18.652;2022-10-15T06:38:52;97932.79;;;14.29;100.00
35479;BME280;21594;49.794;18.652;2022-10-15T06:41:18;97933.19;;;14.34;100.00
35479;BME280;21594;49.794;18.652;2022-10-15T06:43:44;97928.97;;;14.37;100.00
35479;BME280;21594;49.794;18.652;2022-10-15T06:46:10;97928.41;;;14.43;100.00
35479;BME280;21594;49.794;18.652;2022-10-15T06:48:38;97924.98;;;14.46;100.00
35479;BME280;21594;49.794;18.652;2022-10-15T06:51:06;97914.63;;;14.45;100.00
35479;BME280;21594;49.794;18.652;2022-10-15T06:53:33;97914.75;;;14.43;100.00
35479;BME280;21594;49.794;18.652;2022-10-15T06:56:00;97920.06;;;14.47;100.00
35479;BME280;21594;49.794;18.652;2022-10-15T06:58:32;97924.84;;;14.48;100.00
35479;BME280;21594;49.794;18.652;2022-10-15T07:01:03;97921.73;;;14.48;100.00
35479;BME280;21594;49.794;18.652;2022-10-15T07:06:06;97916.81;;;14.49;100.00
35479;BME280;21594;49.794;18.652;2022-10-15T07:08:33;97924.77;;;14.53;100.00
35479;BME280;21594;49.794;18.652;2022-10-15T07:11:01;97924.28;;;14.54;100.00
35479;BME280;21594;49.794;18.652;2022-10-15T07:13:28;97926.43;;;14.54;100.00
35479;BME280;21594;49.794;18.652;2022-10-15T07:15:54;97929.24;;;14.57;100.00
35479;BME280;21594;49.794;18.652;2022-10-15T07:18:21;97931.05;;;14.56;100.00
35479;BME280;21594;49.794;18.652;2022-10-15T07:20:47;97934.38;;;14.58;100.00
35479;BME280;21594;49.794;18.652;2022-10-15T07:23:14;97940.69;;;14.61;100.00
35479;BME280;21594;49.794;18.652;2022-10-15T07:25:39;97945.78;;;14.63;100.00
35479;BME280;21594;49.794;18.652;2022-10-15T07:28:08;97948.33;;;14.69;100.00
35479;BME280;21594;49.794;18.652;2022-10-15T07:30:49;97948.41;;;14.73;100.00
35479;BME280;21594;49.794;18.652;2022-10-15T07:33:15;97962.20;;;14.71;100.00
35479;BME280;21594;49.794;18.652;2022-10-15T07:35:41;97971.46;;;14.75;100.00
35479;BME280;21594;49.794;18.652;2022-10-15T07:38:07;97972.34;;;14.79;100.00
35479;BME280;21594;49.794;18.652;2022-10-15T07:40:35;97973.52;;;14.81;100.00
35479;BME280;21594;49.794;18.652;2022-10-15T07:43:01;97971.42;;;14.84;100.00
35479;BME280;21594;49.794;18.652;2022-10-15T07:45:28;97977.87;;;14.86;100.00
35479;BME280;21594;49.794;18.652;2022-10-15T07:48:00;97979.40;;;14.88;100.00
35479;BME280;21594;49.794;18.652;2022-10-15T07:50:26;97975.01;;;14.93;100.00
35479;BME280;21594;49.794;18.652;2022-10-15T07:52:52;97967.28;;;14.95;100.00
35479;BME280;21594;49.794;18.652;2022-10-15T07:55:18;97968.46;;;14.97;100.00
35479;BME280;21594;49.794;18.652;2022-10-15T07:57:44;97968.02;;;15.01;100.00
35479;BME280;21594;49.794;18.652;2022-10-15T08:00:10;97970.86;;;15.04;100.00
35479;BME280;21594;49.794;18.652;2022-10-15T08:02:39;97973.89;;;15.09;100.00
35479;BME280;21594;49.794;18.652;2022-10-15T08:05:06;97979.10;;;15.19;100.00
35479;BME280;21594;49.794;18.652;2022-10-15T08:07:32;97974.56;;;15.25;100.00
35479;BME280;21594;49.794;18.652;2022-10-15T08:09:59;97962.59;;;15.30;100.00
35479;BME280;21594;49.794;18.652;2022-10-15T08:14:53;97972.52;;;15.50;100.00
35479;BME280;21594;49.794;18.652;2022-10-15T08:17:19;97976.13;;;15.59;100.00
35479;BME280;21594;49.794;18.652;2022-10-15T08:22:20;97965.70;;;15.71;100.00
35479;BME280;21594;49.794;18.652;2022-10-15T08:24:47;97976.94;;;15.77;100.00
35479;BME280;21594;49.794;18.652;2022-10-15T08:27:15;97961.83;;;15.83;100.00
35479;BME280;21594;49.794;18.652;2022-10-15T08:29:41;97966.04;;;15.94;100.00
35479;BME280;21594;49.794;18.652;2022-10-15T08:32:07;97966.13;;;16.02;100.00
35479;BME280;21594;49.794;18.652;2022-10-15T08:34:32;97959.55;;;16.06;100.00
35479;BME280;21594;49.794;18.652;2022-10-15T08:36:58;97962.70;;;16.09;100.00
35479;BME280;21594;49.794;18.652;2022-10-15T08:39:24;97965.39;;;16.13;100.00
35479;BME280;21594;49.794;18.652;2022-10-15T08:42:04;97969.02;;;16.12;100.00
35479;BME280;21594;49.794;18.652;2022-10-15T08:44:29;97972.48;;;16.13;100.00
35479;BME280;21594;49.794;18.652;2022-10-15T08:47:04;97978.63;;;16.17;100.00
35479;BME280;21594;49.794;18.652;2022-10-15T08:52:06;97976.79;;;16.14;100.00
35479;BME280;21594;49.794;18.652;2022-10-15T08:54:30;97972.51;;;16.17;100.00
35479;BME280;21594;49.794;18.652;2022-10-15T08:57:10;97970.70;;;16.17;100.00
35479;BME280;21594;49.794;18.652;2022-10-15T09:02:20;97956.30;;;16.12;100.00
35479;BME280;21594;49.794;18.652;2022-10-15T09:04:48;97975.98;;;16.17;100.00
35479;BME280;21594;49.794;18.652;2022-10-15T09:12:45;97980.43;;;16.17;100.00
35479;BME280;21594;49.794;18.652;2022-10-15T09:15:11;97978.59;;;16.13;100.00
35479;BME280;21594;49.794;18.652;2022-10-15T09:17:38;97981.72;;;16.13;100.00
35479;BME280;21594;49.794;18.652;2022-10-15T09:20:05;97980.26;;;16.14;100.00
35479;BME280;21594;49.794;18.652;2022-10-15T09:22:32;97986.20;;;16.16;100.00
35479;BME280;21594;49.794;18.652;2022-10-15T09:24:58;97979.31;;;16.19;100.00
35479;BME280;21594;49.794;18.652;2022-10-15T09:27:33;97985.10;;;16.23;100.00
35479;BME280;21594;49.794;18.652;2022-10-15T09:30:02;97982.83;;;16.28;100.00
35479;BME280;21594;49.794;18.652;2022-10-15T09:32:33;97975.13;;;16.35;100.00
35479;BME280;21594;49.794;18.652;2022-10-15T09:35:00;97977.42;;;16.33;100.00
35479;BME280;21594;49.794;18.652;2022-10-15T09:37:27;97973.31;;;16.35;100.00
35479;BME280;21594;49.794;18.652;2022-10-15T09:40:15;97983.55;;;16.38;100.00
35479;BME280;21594;49.794;18.652;2022-10-15T09:42:39;97989.20;;;16.43;100.00
35479;BME280;21594;49.794;18.652;2022-10-15T09:45:09;97992.53;;;16.45;100.00
35479;BME280;21594;49.794;18.652;2022-10-15T09:47:38;97986.61;;;16.47;100.00
35479;BME280;21594;49.794;18.652;2022-10-15T09:50:06;97987.12;;;16.51;100.00
35479;BME280;21594;49.794;18.652;2022-10-15T09:55:24;97990.61;;;16.55;100.00
35479;BME280;21594;49.794;18.652;2022-10-15T09:57:46;97987.73;;;16.62;100.00
35479;BME280;21594;49.794;18.652;2022-10-15T10:00:13;97985.94;;;16.67;100.00
35479;BME280;21594;49.794;18.652;2022-10-15T10:02:39;97991.09;;;16.72;100.00
35479;BME280;21594;49.794;18.652;2022-10-15T10:05:19;97985.00;;;16.80;100.00
35479;BME280;21594;49.794;18.652;2022-10-15T10:07:46;97983.05;;;16.86;100.00
35479;BME280;21594;49.794;18.652;2022-10-15T10:12:52;97972.33;;;16.88;100.00
35479;BME280;21594;49.794;18.652;2022-10-15T10:15:40;97979.83;;;16.96;100.00
35479;BME280;21594;49.794;18.652;2022-10-15T10:18:01;97982.33;;;17.02;100.00
35479;BME280;21594;49.794;18.652;2022-10-15T10:20:32;97980.33;;;17.00;100.00
35479;BME280;21594;49.794;18.652;2022-10-15T10:22:59;97984.28;;;16.96;100.00
35479;BME280;21594;49.794;18.652;2022-10-15T10:25:34;97982.13;;;16.95;100.00
35479;BME280;21594;49.794;18.652;2022-10-15T10:28:24;97982.82;;;17.01;100.00
35479;BME280;21594;49.794;18.652;2022-10-15T10:33:21;97987.45;;;17.07;100.00
35479;BME280;21594;49.794;18.652;2022-10-15T10:35:47;98000.17;;;17.08;100.00
35479;BME280;21594;49.794;18.652;2022-10-15T10:38:29;97986.64;;;17.07;100.00
35479;BME280;21594;49.794;18.652;2022-10-15T10:41:03;97997.53;;;17.08;100.00
35479;BME280;21594;49.794;18.652;2022-10-15T10:43:32;97997.04;;;17.08;100.00
35479;BME280;21594;49.794;18.652;2022-10-15T10:48:44;97989.44;;;17.05;100.00
35479;BME280;21594;49.794;18.652;2022-10-15T10:51:23;97997.36;;;17.01;100.00
35479;BME280;21594;49.794;18.652;2022-10-15T10:56:24;98009.41;;;17.00;100.00
35479;BME280;21594;49.794;18.652;2022-10-15T10:58:56;98004.75;;;16.98;100.00
35479;BME280;21594;49.794;18.652;2022-10-15T11:01:19;97996.81;;;16.94;100.00
35479;BME280;21594;49.794;18.652;2022-10-15T11:03:44;97996.12;;;16.88;100.00
35479;BME280;21594;49.794;18.652;2022-10-15T11:11:25;97993.98;;;16.91;100.00
35479;BME280;21594;49.794;18.652;2022-10-15T11:29:35;97983.18;;;17.10;100.00
35479;BME280;21594;49.794;18.652;2022-10-15T11:32:21;97989.80;;;17.14;100.00
35479;BME280;21594;49.794;18.652;2022-10-15T11:39:52;97994.45;;;17.17;100.00
35479;BME280;21594;49.794;18.652;2022-10-15T11:42:26;97995.77;;;17.17;100.00
35479;BME280;21594;49.794;18.652;2022-10-15T11:52:34;97981.08;;;17.18;100.00
35479;BME280;21594;49.794;18.652;2022-10-15T11:57:31;97973.48;;;17.23;100.00
35479;BME280;21594;49.794;18.652;2022-10-15T12:02:38;97966.05;;;17.23;100.00
35479;BME280;21594;49.794;18.652;2022-10-15T12:05:08;97965.07;;;17.28;100.00
35479;BME280;21594;49.794;18.652;2022-10-15T12:15:34;97977.31;;;17.37;100.00
35479;BME280;21594;49.794;18.652;2022-10-15T12:20:35;97981.82;;;17.48;100.00
35479;BME280;21594;49.794;18.652;2022-10-15T12:23:02;97969.58;;;17.51;100.00
35479;BME280;21594;49.794;18.652;2022-10-15T12:30:52;97977.36;;;17.57;100.00
35479;BME280;21594;49.794;18.652;2022-10-15T12:35:59;97973.89;;;17.56;100.00
35479;BME280;21594;49.794;18.652;2022-10-15T12:38:32;97959.33;;;17.52;100.00
35479;BME280;21594;49.794;18.652;2022-10-15T12:41:10;97950.26;;;17.55;100.00
35479;BME280;21594;49.794;18.652;2022-10-15T12:43:40;97945.95;;;17.58;100.00
35479;BME280;21594;49.794;18.652;2022-10-15T12:46:08;97953.27;;;17.60;100.00
35479;BME280;21594;49.794;18.652;2022-10-15T12:48:42;97951.30;;;17.66;100.00
35479;BME280;21594;49.794;18.652;2022-10-15T12:53:50;97954.95;;;17.77;100.00
35479;BME280;21594;49.794;18.652;2022-10-15T12:58:51;97949.50;;;17.87;100.00
35479;BME280;21594;49.794;18.652;2022-10-15T13:03:55;97944.86;;;17.81;100.00
35479;BME280;21594;49.794;18.652;2022-10-15T13:06:30;97954.94;;;17.89;100.00
35479;BME280;21594;49.794;18.652;2022-10-15T13:11:41;97952.14;;;17.91;100.00
35479;BME280;21594;49.794;18.652;2022-10-15T13:16:36;97955.11;;;17.80;100.00
35479;BME280;21594;49.794;18.652;2022-10-15T13:19:05;97963.72;;;17.82;100.00
35479;BME280;21594;49.794;18.652;2022-10-15T13:21:50;97968.86;;;17.83;100.00
35479;BME280;21594;49.794;18.652;2022-10-15T13:24:17;97964.06;;;17.83;100.00
35479;BME280;21594;49.794;18.652;2022-10-15T13:26:43;97962.89;;;17.81;100.00
35479;BME280;21594;49.794;18.652;2022-10-15T13:29:16;97964.22;;;17.81;100.00
35479;BME280;21594;49.794;18.652;2022-10-15T13:31:43;97968.19;;;17.81;100.00
35479;BME280;21594;49.794;18.652;2022-10-15T13:34:15;97969.66;;;17.84;100.00
35479;BME280;21594;49.794;18.652;2022-10-15T13:36:40;97972.65;;;17.85;100.00
35479;BME280;21594;49.794;18.652;2022-10-15T13:41:51;97964.89;;;17.83;100.00
35479;BME280;21594;49.794;18.652;2022-10-15T13:44:22;97961.91;;;17.86;100.00
35479;BME280;21594;49.794;18.652;2022-10-15T13:46:48;97959.41;;;17.85;100.00
35479;BME280;21594;49.794;18.652;2022-10-15T13:49:16;97967.84;;;17.84;100.00
35479;BME280;21594;49.794;18.652;2022-10-15T13:51:44;97975.48;;;17.83;100.00
35479;BME280;21594;49.794;18.652;2022-10-15T13:54:14;97970.98;;;17.84;100.00
35479;BME280;21594;49.794;18.652;2022-10-15T13:56:41;97977.14;;;17.88;100.00
35479;BME280;21594;49.794;18.652;2022-10-15T13:59:11;97978.28;;;17.90;100.00
35479;BME280;21594;49.794;18.652;2022-10-15T14:01:34;97982.09;;;17.87;100.00
35479;BME280;21594;49.794;18.652;2022-10-15T14:04:01;97979.59;;;17.90;100.00
35479;BME280;21594;49.794;18.652;2022-10-15T14:08:59;97981.91;;;17.85;100.00
35479;BME280;21594;49.794;18.652;2022-10-15T14:11:26;97981.27;;;17.87;100.00
35479;BME280;21594;49.794;18.652;2022-10-15T14:14:02;97984.75;;;17.83;100.00
35479;BME280;21594;49.794;18.652;2022-10-15T14:16:28;97971.97;;;17.79;100.00
35479;BME280;21594;49.794;18.652;2022-10-15T14:18:57;97967.52;;;17.75;100.00
35479;BME280;21594;49.794;18.652;2022-10-15T14:21:25;97975.80;;;17.76;100.00
35479;BME280;21594;49.794;18.652;2022-10-15T14:24:04;97985.36;;;17.73;100.00
35479;BME280;21594;49.794;18.652;2022-10-15T14:26:22;97984.38;;;17.70;100.00
35479;BME280;21594;49.794;18.652;2022-10-15T14:28:49;97980.75;;;17.67;100.00
35479;BME280;21594;49.794;18.652;2022-10-15T14:31:28;97980.69;;;17.59;100.00
35479;BME280;21594;49.794;18.652;2022-10-15T14:33:53;97979.17;;;17.52;100.00
35479;BME280;21594;49.794;18.652;2022-10-15T14:36:26;97979.33;;;17.47;100.00
35479;BME280;21594;49.794;18.652;2022-10-15T14:38:50;97985.59;;;17.42;100.00
35479;BME280;21594;49.794;18.652;2022-10-15T14:41:29;97995.83;;;17.37;100.00
35479;BME280;21594;49.794;18.652;2022-10-15T14:46:32;97995.67;;;17.34;100.00
35479;BME280;21594;49.794;18.652;2022-10-15T14:48:55;97994.17;;;17.32;100.00
35479;BME280;21594;49.794;18.652;2022-10-15T14:51:25;97995.78;;;17.21;100.00
35479;BME280;21594;49.794;18.652;2022-10-15T14:53:49;97991.80;;;17.12;100.00
35479;BME280;21594;49.794;18.652;2022-10-15T14:58:50;97997.38;;;17.09;100.00
35479;BME280;21594;49.794;18.652;2022-10-15T15:01:18;97996.54;;;17.05;100.00
35479;BME280;21594;49.794;18.652;2022-10-15T15:03:48;97988.94;;;17.02;100.00
35479;BME280;21594;49.794;18.652;2022-10-15T15:06:16;97987.58;;;16.98;100.00
35479;BME280;21594;49.794;18.652;2022-10-15T15:08:42;97992.38;;;16.98;100.00
35479;BME280;21594;49.794;18.652;2022-10-15T15:11:09;97992.38;;;17.02;100.00
35479;BME280;21594;49.794;18.652;2022-10-15T15:13:37;97997.03;;;17.04;100.00
35479;BME280;21594;49.794;18.652;2022-10-15T15:16:04;98002.66;;;17.05;100.00
35479;BME280;21594;49.794;18.652;2022-10-15T15:18:30;98002.16;;;17.02;100.00
35479;BME280;21594;49.794;18.652;2022-10-15T15:20:57;97999.33;;;17.03;100.00
35479;BME280;21594;49.794;18.652;2022-10-15T15:23:24;98003.27;;;16.95;100.00
35479;BME280;21594;49.794;18.652;2022-10-15T15:25:58;98004.74;;;16.94;100.00
35479;BME280;21594;49.794;18.652;2022-10-15T15:28:32;98009.34;;;16.92;100.00